CheckWX is a tool to help pilots better visualize weather data.  It is not intended as a substitute for an official pre-flight weather briefing.

08:42:08 UTC

96D METAR
Walhalla Municipal Airport
Walhalla, North Dakota, USA
Current

7 mins ago

K96D 180835Z AUTO 13010KT 10SM CLR 06/06 A2949 RMK AO2
Observed
Oct-18 @ 08:35 UTC
Wind
  • 130° at 10 KTS
Visibility
10 SM
Flight Rules
VFR
Cloud Levels
  • Clear skies
Temperature
C / 43°F
Dewpoint
C / 43°F
Humidity
100%
Altimeter
29.49" Hg
Pressure
998.62 hPa
Previous

27 mins ago

K96D 180815Z AUTO 13010KT 10SM CLR 06/06 A2950 RMK AO2
Observed
Oct-18 @ 08:15 UTC
Wind
  • 130° at 10 KTS
Visibility
10 SM
Flight Rules
VFR
Cloud Levels
  • Clear skies
Temperature
C / 43°F
Dewpoint
C / 43°F
Humidity
100%
Altimeter
29.5" Hg
Pressure
999.02 hPa
Previous

47 mins ago

K96D 180755Z AUTO 13009KT 10SM FEW030 05/06 A2951 RMK AO2
Observed
Oct-18 @ 07:55 UTC
Wind
  • 130° at 9 KTS
Visibility
10 SM
Flight Rules
VFR
Cloud Levels
  • Few at 3,000' AGL
Temperature
C / 41°F
Dewpoint
C / 43°F
Humidity
107%
Altimeter
29.51" Hg
Pressure
999.32 hPa